createdAt,value
2018-09-17T00:00:27.247Z,0.00
2018-09-17T00:01:27.247Z,0.00
2018-09-17T00:02:27.243Z,0.00
2018-09-17T00:03:27.241Z,0.00
2018-09-17T00:04:27.244Z,0.00
2018-09-17T00:05:27.236Z,0.00
2018-09-17T00:06:27.236Z,0.00
2018-09-17T00:07:27.231Z,0.00
2018-09-17T00:08:27.229Z,0.00
2018-09-17T00:09:27.227Z,0.00
2018-09-17T00:10:27.226Z,0.00
2018-09-17T00:11:27.223Z,0.00
2018-09-17T00:12:27.220Z,0.00
2018-09-17T00:13:27.215Z,0.00
2018-09-17T00:14:27.214Z,0.00
2018-09-17T00:15:27.217Z,0.00
2018-09-17T00:16:27.209Z,0.00
2018-09-17T00:17:27.209Z,0.00
2018-09-17T00:18:27.210Z,0.00
2018-09-17T00:19:27.200Z,0.00
2018-09-17T00:20:27.206Z,0.00
2018-09-17T00:21:27.199Z,0.00
2018-09-17T00:22:27.195Z,0.00
2018-09-17T00:23:27.190Z,0.00
2018-09-17T00:24:27.192Z,0.00
2018-09-17T00:25:27.187Z,0.00
2018-09-17T00:26:27.191Z,0.00
2018-09-17T00:27:27.186Z,0.00
2018-09-17T00:28:27.181Z,0.00
2018-09-17T00:29:27.178Z,0.00
2018-09-17T00:30:27.177Z,0.00
2018-09-17T00:31:27.178Z,0.00
2018-09-17T00:32:27.169Z,0.00
2018-09-17T00:33:27.170Z,0.00
2018-09-17T00:34:27.165Z,0.00
2018-09-17T00:35:27.160Z,0.00
2018-09-17T00:36:27.158Z,0.00
2018-09-17T00:37:27.158Z,0.00
2018-09-17T00:38:27.155Z,0.00
2018-09-17T00:39:27.152Z,0.00
2018-09-17T00:40:27.150Z,0.00
2018-09-17T00:41:27.146Z,0.00
2018-09-17T00:42:27.146Z,0.00
2018-09-17T00:43:27.139Z,0.00
2018-09-17T00:44:27.143Z,0.00
2018-09-17T00:45:27.141Z,0.00
2018-09-17T00:46:27.132Z,0.00
2018-09-17T00:47:27.132Z,0.00
2018-09-17T00:48:27.129Z,0.00
2018-09-17T00:49:27.130Z,0.00
2018-09-17T00:50:27.124Z,0.00
2018-09-17T00:51:27.124Z,0.00
2018-09-17T00:52:27.117Z,0.00
2018-09-17T00:53:27.118Z,0.00
2018-09-17T00:54:27.109Z,0.00
2018-09-17T00:55:27.741Z,0.00
2018-09-17T00:56:27.109Z,0.00
2018-09-17T00:57:27.098Z,0.00
2018-09-17T00:58:27.096Z,0.00
2018-09-17T00:59:27.100Z,0.00
2018-09-17T01:00:27.092Z,0.00
2018-09-17T01:01:27.091Z,0.00
2018-09-17T01:02:27.096Z,0.00
2018-09-17T01:03:27.083Z,0.00
2018-09-17T01:04:27.081Z,0.00
2018-09-17T01:05:27.081Z,0.00
2018-09-17T01:06:27.074Z,0.00
2018-09-17T01:07:27.071Z,0.00
2018-09-17T01:08:27.068Z,0.00
2018-09-17T01:09:27.069Z,0.00
2018-09-17T01:10:27.066Z,0.00
2018-09-17T01:11:27.060Z,0.00
2018-09-17T01:12:27.057Z,0.00
2018-09-17T01:13:27.055Z,0.00
2018-09-17T01:14:27.059Z,0.00
2018-09-17T01:15:27.051Z,0.00
2018-09-17T01:16:27.045Z,0.00
2018-09-17T01:17:27.045Z,0.00
2018-09-17T01:18:27.037Z,0.00
2018-09-17T01:19:27.040Z,0.00
2018-09-17T01:20:27.035Z,0.00
2018-09-17T01:21:27.031Z,0.00
2018-09-17T01:22:27.027Z,0.00
2018-09-17T01:23:27.024Z,0.00
2018-09-17T01:24:27.023Z,0.00
2018-09-17T01:25:27.021Z,0.00
2018-09-17T01:26:27.017Z,0.00
2018-09-17T01:27:27.008Z,0.00
2018-09-17T01:28:27.009Z,0.00
2018-09-17T01:29:27.003Z,0.00
2018-09-17T01:30:27.006Z,0.00
2018-09-17T01:31:27.004Z,0.00
2018-09-17T01:32:26.998Z,0.00
2018-09-17T01:33:26.993Z,0.00
2018-09-17T01:34:26.991Z,0.00
2018-09-17T01:35:26.988Z,0.00
2018-09-17T01:36:26.984Z,0.00
2018-09-17T01:37:26.981Z,0.00
2018-09-17T01:38:26.977Z,0.00
2018-09-17T01:39:26.972Z,0.00
2018-09-17T01:40:26.973Z,0.00
2018-09-17T01:41:26.974Z,0.00
2018-09-17T01:42:26.964Z,0.00
2018-09-17T01:43:26.968Z,0.00
2018-09-17T01:44:26.958Z,0.00
2018-09-17T01:45:26.963Z,0.00
2018-09-17T01:46:26.954Z,0.00
2018-09-17T01:47:26.947Z,0.00
2018-09-17T01:48:26.947Z,0.00
2018-09-17T01:49:26.940Z,0.00
2018-09-17T01:50:26.937Z,0.00
2018-09-17T01:51:26.936Z,0.00
2018-09-17T01:52:26.940Z,0.00
2018-09-17T01:53:26.928Z,0.00
2018-09-17T01:54:26.925Z,0.00
2018-09-17T01:55:26.922Z,0.00
2018-09-17T01:56:26.917Z,0.00
2018-09-17T01:57:26.915Z,0.00
2018-09-17T01:58:26.913Z,0.00
2018-09-17T01:59:26.915Z,0.00
2018-09-17T02:00:26.903Z,0.00
2018-09-17T02:01:26.901Z,0.00
2018-09-17T02:02:26.904Z,0.00
2018-09-17T02:03:26.895Z,0.00
2018-09-17T02:04:26.890Z,0.00
2018-09-17T02:05:26.891Z,0.00
2018-09-17T02:06:26.883Z,0.00
2018-09-17T02:07:26.882Z,0.00
2018-09-17T02:08:26.961Z,0.00
2018-09-17T02:09:26.874Z,0.00
2018-09-17T02:10:26.869Z,0.00
2018-09-17T02:11:26.868Z,0.00
2018-09-17T02:12:26.864Z,0.00
2018-09-17T02:13:26.861Z,0.00
2018-09-17T02:14:26.862Z,0.00
2018-09-17T02:15:26.852Z,0.00
2018-09-17T02:16:26.849Z,0.00
2018-09-17T02:17:26.845Z,0.00
2018-09-17T02:18:26.844Z,0.00
2018-09-17T02:19:26.833Z,0.00
2018-09-17T02:20:26.836Z,0.00
2018-09-17T02:21:26.830Z,0.00
2018-09-17T02:22:26.831Z,0.00
2018-09-17T02:23:26.823Z,0.00
2018-09-17T02:24:26.826Z,0.00
2018-09-17T02:25:26.817Z,0.00
2018-09-17T02:26:26.815Z,0.00
2018-09-17T02:27:26.814Z,0.00
2018-09-17T02:28:26.806Z,0.00
2018-09-17T02:29:26.813Z,0.00
2018-09-17T02:30:26.796Z,0.00
2018-09-17T02:31:26.796Z,0.00
2018-09-17T02:32:26.795Z,0.00
2018-09-17T02:33:26.794Z,0.00
2018-09-17T02:34:26.785Z,0.00
2018-09-17T02:35:26.792Z,0.00
2018-09-17T02:36:26.776Z,0.00
2018-09-17T02:37:26.773Z,0.00
2018-09-17T02:38:26.773Z,0.00
2018-09-17T02:39:26.768Z,0.00
2018-09-17T02:40:26.762Z,0.00
2018-09-17T02:41:26.777Z,0.00
2018-09-17T02:42:26.754Z,0.00
2018-09-17T02:43:26.758Z,0.00
2018-09-17T02:44:26.746Z,0.00
2018-09-17T02:45:26.747Z,0.00
2018-09-17T02:46:26.745Z,0.00
2018-09-17T02:47:26.738Z,0.00
2018-09-17T02:48:26.737Z,0.00
2018-09-17T02:49:26.737Z,0.00
2018-09-17T02:50:26.725Z,0.00
2018-09-17T02:51:26.724Z,0.00
2018-09-17T02:52:26.722Z,0.00
2018-09-17T02:53:26.767Z,0.00
2018-09-17T02:54:26.709Z,0.00
2018-09-17T02:55:26.717Z,0.00
2018-09-17T02:56:26.706Z,0.00
2018-09-17T02:57:26.705Z,0.00
2018-09-17T02:58:26.697Z,0.00
2018-09-17T02:59:26.692Z,0.00
2018-09-17T03:00:26.689Z,0.00
2018-09-17T03:01:26.687Z,0.00
2018-09-17T03:02:26.679Z,0.00
2018-09-17T03:03:26.677Z,0.00
2018-09-17T03:04:26.676Z,0.00
2018-09-17T03:05:26.670Z,0.00
2018-09-17T03:06:26.672Z,0.00
2018-09-17T03:07:26.661Z,0.00
2018-09-17T03:08:26.657Z,0.00
2018-09-17T03:09:26.654Z,0.00
2018-09-17T03:10:26.651Z,0.00
2018-09-17T03:11:26.652Z,0.00
2018-09-17T03:12:26.641Z,0.00
2018-09-17T03:13:26.642Z,0.00
2018-09-17T03:14:26.637Z,0.00
2018-09-17T03:15:26.633Z,0.00
2018-09-17T03:16:26.628Z,0.00
2018-09-17T03:17:26.624Z,0.00
2018-09-17T03:18:26.622Z,0.00
2018-09-17T03:19:26.619Z,0.00
2018-09-17T03:20:26.613Z,0.00
2018-09-17T03:21:26.609Z,0.00
2018-09-17T03:22:26.606Z,0.00
2018-09-17T03:23:26.602Z,0.00
2018-09-17T03:24:26.618Z,0.00
2018-09-17T03:25:26.596Z,0.00
2018-09-17T03:26:26.589Z,0.00
2018-09-17T03:27:26.588Z,0.00
2018-09-17T03:28:26.581Z,0.00
2018-09-17T03:29:26.578Z,0.00
2018-09-17T03:30:26.574Z,0.00
2018-09-17T03:31:26.570Z,0.00
2018-09-17T03:32:26.565Z,0.00
2018-09-17T03:33:26.561Z,0.00
2018-09-17T03:34:26.558Z,0.00
2018-09-17T03:35:26.554Z,0.00
2018-09-17T03:36:26.550Z,0.00
2018-09-17T03:37:26.548Z,0.00
2018-09-17T03:38:26.540Z,0.00
2018-09-17T03:39:26.537Z,0.00
2018-09-17T03:40:26.532Z,0.00
2018-09-17T03:41:26.538Z,0.00
2018-09-17T03:42:26.529Z,0.00
2018-09-17T03:43:26.529Z,0.00
2018-09-17T03:44:26.516Z,0.00
2018-09-17T03:45:26.535Z,0.00
2018-09-17T03:46:26.546Z,0.00
2018-09-17T03:47:26.507Z,0.00
2018-09-17T03:48:26.501Z,0.00
2018-09-17T03:49:26.500Z,0.00
2018-09-17T03:50:26.502Z,0.00
2018-09-17T03:51:26.491Z,0.00
2018-09-17T03:52:26.487Z,0.00
2018-09-17T03:53:26.487Z,0.00
2018-09-17T03:54:26.480Z,0.00
2018-09-17T03:55:26.480Z,0.00
2018-09-17T03:56:26.469Z,0.00
2018-09-17T03:57:26.472Z,0.00
2018-09-17T03:58:26.465Z,0.00
2018-09-17T03:59:26.460Z,0.00
2018-09-17T04:00:26.462Z,0.00
2018-09-17T04:01:26.458Z,0.00
2018-09-17T04:02:26.449Z,0.00
2018-09-17T04:03:26.443Z,0.00
2018-09-17T04:04:26.446Z,0.00
2018-09-17T04:05:26.438Z,0.00
2018-09-17T04:06:26.437Z,0.00
2018-09-17T04:07:26.429Z,0.00
2018-09-17T04:08:26.426Z,0.00
2018-09-17T04:09:26.416Z,0.00
2018-09-17T04:10:26.417Z,0.00
2018-09-17T04:11:26.418Z,0.00
2018-09-17T04:12:26.407Z,0.00
2018-09-17T04:13:26.405Z,4.00
2018-09-17T04:14:26.408Z,4.00
2018-09-17T04:15:26.402Z,0.00
2018-09-17T04:16:26.396Z,4.00
2018-09-17T04:17:26.393Z,4.00
2018-09-17T04:18:26.384Z,4.00
2018-09-17T04:19:26.382Z,8.00
2018-09-17T04:20:26.380Z,8.00
2018-09-17T04:21:26.372Z,8.00
2018-09-17T04:22:26.369Z,12.00
2018-09-17T04:23:26.362Z,8.00
2018-09-17T04:24:26.360Z,12.00
2018-09-17T04:25:26.356Z,16.00
2018-09-17T04:26:26.352Z,16.00
2018-09-17T04:27:26.350Z,20.00
2018-09-17T04:28:26.345Z,24.00
2018-09-17T04:29:26.341Z,28.00
2018-09-17T04:30:26.335Z,32.00
2018-09-17T04:31:26.382Z,36.00
2018-09-17T04:32:26.328Z,44.00
2018-09-17T04:33:26.326Z,48.00
2018-09-17T04:34:26.324Z,56.00
2018-09-17T04:35:26.322Z,64.00
2018-09-17T04:36:26.312Z,68.00
2018-09-17T04:37:26.307Z,84.00
2018-09-17T04:38:26.305Z,92.00
2018-09-17T04:39:26.300Z,104.00
2018-09-17T04:40:26.295Z,116.00
2018-09-17T04:41:26.296Z,128.00
2018-09-17T04:42:26.289Z,144.00
2018-09-17T04:43:26.281Z,160.00
2018-09-17T04:44:26.278Z,176.00
2018-09-17T04:45:26.280Z,192.00
2018-09-17T04:46:26.273Z,208.00
2018-09-17T04:47:26.267Z,224.00
2018-09-17T04:48:26.262Z,244.00
2018-09-17T04:49:26.256Z,260.00
2018-09-17T04:50:26.260Z,276.00
2018-09-17T04:51:26.348Z,292.00
2018-09-17T04:52:26.246Z,312.00
2018-09-17T04:53:26.244Z,332.00
2018-09-17T04:54:26.236Z,356.00
2018-09-17T04:55:26.233Z,380.00
2018-09-17T04:56:26.228Z,408.00
2018-09-17T04:57:26.278Z,428.00
2018-09-17T04:58:26.223Z,452.00
2018-09-17T04:59:26.218Z,480.00
2018-09-17T05:00:26.220Z,512.00
2018-09-17T05:01:26.211Z,532.00
2018-09-17T05:02:26.208Z,556.00
2018-09-17T05:03:26.195Z,584.00
2018-09-17T05:04:26.196Z,604.00
2018-09-17T05:05:26.197Z,628.00
2018-09-17T05:06:26.189Z,656.00
2018-09-17T05:07:26.263Z,688.00
2018-09-17T05:08:26.179Z,724.00
2018-09-17T05:09:26.180Z,760.00
2018-09-17T05:10:26.173Z,796.00
2018-09-17T05:11:26.172Z,836.00
2018-09-17T05:12:26.168Z,876.00
2018-09-17T05:13:26.305Z,924.00
2018-09-17T05:14:26.158Z,976.00
2018-09-17T05:15:26.151Z,1024.00
2018-09-17T05:16:26.148Z,1060.00
2018-09-17T05:17:26.147Z,1088.00
2018-09-17T05:18:26.143Z,1124.00
2018-09-17T05:19:26.135Z,1148.00
2018-09-17T05:20:26.133Z,1172.00
2018-09-17T05:21:26.128Z,1196.00
2018-09-17T05:22:26.126Z,1220.00
2018-09-17T05:23:26.118Z,1252.00
2018-09-17T05:24:26.114Z,1280.00
2018-09-17T05:25:26.114Z,1300.00
2018-09-17T05:26:26.109Z,1320.00
2018-09-17T05:27:26.106Z,1348.00
2018-09-17T05:28:26.102Z,1404.00
2018-09-17T05:29:26.108Z,1544.00
2018-09-17T05:30:26.093Z,1688.00
2018-09-17T05:31:26.088Z,1788.00
2018-09-17T05:32:26.083Z,1900.00
2018-09-17T05:33:26.080Z,2032.00
2018-09-17T05:34:26.074Z,2164.00
2018-09-17T05:35:26.072Z,2276.00
2018-09-17T05:36:26.068Z,2656.00
2018-09-17T05:37:26.065Z,3424.00
2018-09-17T05:38:26.067Z,3776.00
2018-09-17T05:39:26.056Z,3888.00
2018-09-17T05:40:26.053Z,4112.00
2018-09-17T05:41:26.052Z,4308.00
2018-09-17T05:42:26.046Z,4384.00
2018-09-17T05:43:26.042Z,4412.00
2018-09-17T05:44:26.042Z,4532.00
2018-09-17T05:45:26.036Z,4840.00
2018-09-17T05:46:26.031Z,5184.00
2018-09-17T05:47:26.032Z,5472.00
2018-09-17T05:48:26.028Z,5604.00
2018-09-17T05:49:26.025Z,5752.00
2018-09-17T05:50:26.023Z,5812.00
2018-09-17T05:51:26.020Z,5820.00
2018-09-17T05:52:26.022Z,5984.00
2018-09-17T05:53:26.013Z,6160.00
2018-09-17T05:54:26.013Z,6692.00
2018-09-17T05:55:26.009Z,6688.00
2018-09-17T05:56:26.015Z,5380.00
2018-09-17T05:57:26.007Z,4196.00
2018-09-17T05:58:26.020Z,3560.00
2018-09-17T05:59:26.027Z,3212.00
2018-09-17T06:00:26.007Z,2972.00
2018-09-17T06:01:25.999Z,2428.00
2018-09-17T06:02:26.003Z,2372.00
2018-09-17T06:03:26.029Z,2392.00
2018-09-17T06:04:26.039Z,2488.00
2018-09-17T06:05:25.993Z,3292.00
2018-09-17T06:06:25.991Z,5968.00
2018-09-17T06:07:25.995Z,7740.00
2018-09-17T06:08:25.983Z,7272.00
2018-09-17T06:09:25.988Z,7056.00
2018-09-17T06:10:26.007Z,6588.00
2018-09-17T06:11:25.996Z,6388.00
2018-09-17T06:12:26.022Z,4708.00
2018-09-17T06:13:25.985Z,2852.00
2018-09-17T06:14:26.006Z,2748.00
2018-09-17T06:15:25.977Z,2912.00
2018-09-17T06:16:25.971Z,3020.00
2018-09-17T06:17:25.994Z,2768.00
2018-09-17T06:18:25.974Z,2916.00
2018-09-17T06:19:25.976Z,3272.00
2018-09-17T06:20:25.977Z,3148.00
2018-09-17T06:21:26.746Z,2892.00
2018-09-17T06:22:25.992Z,3720.00
2018-09-17T06:23:26.093Z,7488.00
2018-09-17T06:24:25.977Z,10668.00
2018-09-17T06:25:25.965Z,11780.00
2018-09-17T06:26:25.975Z,13460.00
2018-09-17T06:27:25.967Z,14164.00
2018-09-17T06:28:26.006Z,14024.00
2018-09-17T06:29:25.969Z,13732.00
2018-09-17T06:30:25.990Z,13424.00
2018-09-17T06:31:25.967Z,12672.00
2018-09-17T06:32:25.958Z,14348.00
2018-09-17T06:33:26.007Z,16224.00
2018-09-17T06:34:25.964Z,15712.00
2018-09-17T06:35:25.959Z,15008.00
2018-09-17T06:36:25.962Z,15584.00
2018-09-17T06:37:26.002Z,15456.00
2018-09-17T06:38:25.959Z,15072.00
2018-09-17T06:39:25.972Z,15104.00
2018-09-17T06:40:25.961Z,15232.00
2018-09-17T06:41:26.005Z,15040.00
2018-09-17T06:42:25.966Z,14720.00
2018-09-17T06:43:25.991Z,16352.00
2018-09-17T06:44:25.962Z,17824.00
2018-09-17T06:45:25.973Z,18752.00
2018-09-17T06:46:26.003Z,19328.00
2018-09-17T06:47:25.968Z,17632.00
2018-09-17T06:48:25.963Z,17408.00
2018-09-17T06:49:25.968Z,19104.00
2018-09-17T06:50:25.988Z,18304.00
2018-09-17T06:51:26.031Z,19680.00
2018-09-17T06:52:26.754Z,19456.00
2018-09-17T06:53:25.973Z,19360.00
2018-09-17T06:54:26.023Z,19136.00
2018-09-17T06:55:25.986Z,18016.00
2018-09-17T06:56:25.993Z,20256.00
2018-09-17T06:57:25.982Z,21696.00
2018-09-17T06:58:25.983Z,21632.00
2018-09-17T06:59:25.986Z,20768.00
2018-09-17T07:00:25.992Z,22112.00
2018-09-17T07:01:25.998Z,22176.00
2018-09-17T07:02:25.992Z,20800.00
2018-09-17T07:03:26.024Z,9708.00
2018-09-17T07:04:26.834Z,9860.00
2018-09-17T07:05:26.002Z,16384.00
2018-09-17T07:06:26.834Z,16960.00
2018-09-17T07:07:26.002Z,10116.00
2018-09-17T07:08:26.007Z,7028.00
2018-09-17T07:09:26.011Z,5100.00
2018-09-17T07:10:26.015Z,6368.00
2018-09-17T07:11:26.013Z,4596.00
2018-09-17T07:12:26.018Z,3756.00
2018-09-17T07:13:26.022Z,3756.00
2018-09-17T07:14:26.028Z,3784.00
2018-09-17T07:15:26.043Z,3816.00
2018-09-17T07:16:26.037Z,3864.00
2018-09-17T07:17:26.033Z,3940.00
2018-09-17T07:18:26.034Z,4020.00
2018-09-17T07:19:26.036Z,4124.00
2018-09-17T07:20:26.075Z,4292.00
2018-09-17T07:21:26.040Z,4332.00
2018-09-17T07:22:26.051Z,4320.00
2018-09-17T07:23:26.043Z,4368.00
2018-09-17T07:24:26.043Z,4544.00
2018-09-17T07:25:26.048Z,4676.00
2018-09-17T07:26:26.048Z,4784.00
2018-09-17T07:27:26.058Z,4884.00
2018-09-17T07:28:26.052Z,4980.00
2018-09-17T07:29:26.057Z,5040.00
2018-09-17T07:30:26.058Z,5080.00
2018-09-17T07:31:26.057Z,5100.00
2018-09-17T07:32:26.062Z,5116.00
2018-09-17T07:33:26.058Z,5128.00
2018-09-17T07:34:26.061Z,5144.00
2018-09-17T07:35:26.062Z,5172.00
2018-09-17T07:36:26.187Z,5204.00
2018-09-17T07:37:26.068Z,5252.00
2018-09-17T07:38:26.067Z,5304.00
2018-09-17T07:39:26.068Z,5356.00
2018-09-17T07:40:26.112Z,5404.00
2018-09-17T07:41:26.081Z,5488.00
2018-09-17T07:42:26.109Z,5560.00
2018-09-17T07:43:26.773Z,5608.00
2018-09-17T07:44:26.075Z,5668.00
2018-09-17T07:45:26.090Z,5704.00
2018-09-17T07:46:26.095Z,5712.00
2018-09-17T07:47:26.079Z,5716.00
2018-09-17T07:48:26.079Z,5800.00
2018-09-17T07:49:26.090Z,5836.00
2018-09-17T07:50:26.082Z,5912.00
2018-09-17T07:51:26.083Z,5972.00
2018-09-17T07:52:26.775Z,6008.00
2018-09-17T07:53:26.089Z,6024.00
2018-09-17T07:54:26.086Z,5996.00
2018-09-17T07:55:26.083Z,5984.00
2018-09-17T07:56:26.090Z,5984.00
2018-09-17T07:57:26.093Z,5944.00
2018-09-17T07:58:26.093Z,5936.00
2018-09-17T07:59:26.096Z,5940.00
2018-09-17T08:00:26.099Z,5984.00
2018-09-17T08:01:26.101Z,5992.00
2018-09-17T08:02:26.098Z,6004.00
2018-09-17T08:03:26.105Z,6012.00
2018-09-17T08:04:26.103Z,6028.00
2018-09-17T08:05:26.102Z,6072.00
2018-09-17T08:06:26.104Z,6092.00
2018-09-17T08:07:26.099Z,6104.00
2018-09-17T08:09:26.110Z,6128.00
2018-09-17T08:10:26.797Z,6124.00
2018-09-17T08:11:26.233Z,6164.00
2018-09-17T08:12:27.023Z,6224.00
2018-09-17T08:13:26.488Z,6292.00
2018-09-17T08:14:26.114Z,6384.00
2018-09-17T08:15:26.115Z,6496.00
2018-09-17T08:16:26.204Z,6624.00
2018-09-17T08:17:26.190Z,6724.00
2018-09-17T08:18:26.372Z,6836.00
2018-09-17T08:19:26.120Z,6896.00
2018-09-17T08:20:26.129Z,6948.00
2018-09-17T08:21:26.245Z,7008.00
2018-09-17T08:22:26.127Z,7112.00
2018-09-17T08:23:26.127Z,7192.00
2018-09-17T08:24:26.410Z,7328.00
2018-09-17T08:25:26.137Z,7500.00
2018-09-17T08:26:26.219Z,7664.00
2018-09-17T08:27:26.128Z,7824.00
2018-09-17T08:28:26.134Z,7916.00
2018-09-17T08:29:26.136Z,7992.00
2018-09-17T08:30:26.141Z,8052.00
2018-09-17T08:31:26.196Z,8088.00
2018-09-17T08:32:26.144Z,8112.00
2018-09-17T08:33:26.535Z,8112.00
2018-09-17T08:34:26.152Z,8092.00
2018-09-17T08:35:26.150Z,8048.00
2018-09-17T08:36:26.149Z,8016.00
2018-09-17T08:37:26.150Z,8000.00
2018-09-17T08:38:26.153Z,7964.00
2018-09-17T08:39:26.157Z,7960.00
2018-09-17T08:40:26.155Z,7980.00
2018-09-17T08:41:26.165Z,8028.00
2018-09-17T08:42:26.162Z,8040.00
2018-09-17T08:43:26.163Z,8032.00
2018-09-17T08:44:26.169Z,7976.00
2018-09-17T08:45:26.190Z,7936.00
2018-09-17T08:46:26.176Z,7844.00
2018-09-17T08:47:26.170Z,7708.00
2018-09-17T08:48:26.170Z,7584.00
2018-09-17T08:49:26.175Z,7508.00
2018-09-17T08:50:26.179Z,7456.00
2018-09-17T08:51:26.177Z,7392.00
2018-09-17T08:52:26.181Z,7352.00
2018-09-17T08:53:26.186Z,7344.00
2018-09-17T08:54:26.188Z,7320.00
2018-09-17T08:55:26.190Z,7300.00
2018-09-17T08:56:26.190Z,7336.00
2018-09-17T08:57:26.196Z,7396.00
2018-09-17T08:58:26.198Z,7480.00
2018-09-17T08:59:26.199Z,7624.00
2018-09-17T09:00:27.186Z,7724.00
2018-09-17T09:01:26.350Z,7792.00
2018-09-17T09:02:26.401Z,7844.00
2018-09-17T09:03:26.213Z,7840.00
2018-09-17T09:04:26.212Z,7792.00
2018-09-17T09:05:26.215Z,7728.00
2018-09-17T09:06:26.222Z,7716.00
2018-09-17T09:07:26.288Z,7680.00
2018-09-17T09:08:26.222Z,7604.00
2018-09-17T09:09:26.224Z,7472.00
2018-09-17T09:10:26.745Z,7328.00
2018-09-17T09:11:26.316Z,7224.00
2018-09-17T09:12:26.235Z,7140.00
2018-09-17T09:13:26.235Z,7044.00
2018-09-17T09:14:26.238Z,6964.00
2018-09-17T09:15:26.234Z,6884.00
2018-09-17T09:16:26.248Z,6756.00
2018-09-17T09:17:26.346Z,6580.00
2018-09-17T09:18:26.249Z,6404.00
2018-09-17T09:19:26.271Z,6304.00
2018-09-17T09:20:26.252Z,6244.00
2018-09-17T09:21:26.258Z,6152.00
2018-09-17T09:22:26.260Z,6040.00
2018-09-17T09:23:26.273Z,5932.00
2018-09-17T09:24:26.264Z,5832.00
2018-09-17T09:25:26.311Z,5748.00
2018-09-17T09:26:26.273Z,5660.00
2018-09-17T09:27:26.272Z,5608.00
2018-09-17T09:28:26.278Z,5552.00
2018-09-17T09:29:26.280Z,5508.00
2018-09-17T09:30:26.277Z,5484.00
2018-09-17T09:31:26.284Z,5460.00
2018-09-17T09:32:26.285Z,5432.00
2018-09-17T09:33:26.290Z,5376.00
2018-09-17T09:34:26.288Z,5328.00
2018-09-17T09:35:26.294Z,5284.00
2018-09-17T09:36:26.310Z,5256.00
2018-09-17T09:37:26.300Z,5204.00
2018-09-17T09:38:26.304Z,5184.00
2018-09-17T09:39:26.314Z,5140.00
2018-09-17T09:40:26.311Z,5088.00
2018-09-17T09:41:26.309Z,5052.00
2018-09-17T09:42:26.318Z,5016.00
2018-09-17T09:43:26.315Z,4960.00
2018-09-17T09:44:26.317Z,4896.00
2018-09-17T09:45:26.329Z,4860.00
2018-09-17T09:46:26.381Z,4824.00
2018-09-17T09:47:26.325Z,4752.00
2018-09-17T09:48:26.329Z,4600.00
2018-09-17T09:49:26.333Z,4520.00
2018-09-17T09:50:26.334Z,4388.00
2018-09-17T09:51:26.337Z,4284.00
2018-09-17T09:52:26.336Z,4184.00
2018-09-17T09:53:26.646Z,4092.00
2018-09-17T09:54:26.344Z,4020.00
2018-09-17T09:55:26.343Z,3948.00
2018-09-17T09:56:26.348Z,3840.00
2018-09-17T09:57:26.350Z,3784.00
2018-09-17T09:58:26.354Z,3784.00
2018-09-17T09:59:26.448Z,3776.00
2018-09-17T10:00:26.356Z,3760.00
2018-09-17T10:01:26.360Z,3716.00
2018-09-17T10:02:26.364Z,3700.00
2018-09-17T10:03:26.415Z,3676.00
2018-09-17T10:04:26.368Z,3640.00
2018-09-17T10:05:26.365Z,3620.00
2018-09-17T10:06:26.368Z,3632.00
2018-09-17T10:07:26.372Z,3624.00
2018-09-17T10:08:26.377Z,3632.00
2018-09-17T10:09:26.386Z,3688.00
2018-09-17T10:10:26.382Z,3736.00
2018-09-17T10:11:26.423Z,3784.00
2018-09-17T10:12:26.386Z,3832.00
2018-09-17T10:13:26.392Z,3904.00
2018-09-17T10:14:26.391Z,3988.00
2018-09-17T10:15:26.397Z,4064.00
2018-09-17T10:16:26.433Z,4120.00
2018-09-17T10:17:26.398Z,4180.00
2018-09-17T10:18:26.399Z,4236.00
2018-09-17T10:19:26.459Z,4268.00
2018-09-17T10:20:26.404Z,4308.00
2018-09-17T10:21:26.411Z,4340.00
2018-09-17T10:22:26.413Z,4356.00
2018-09-17T10:23:26.416Z,4412.00
2018-09-17T10:24:26.558Z,4456.00
2018-09-17T10:25:26.425Z,4540.00
2018-09-17T10:26:26.424Z,4572.00
2018-09-17T10:27:26.632Z,4664.00
2018-09-17T10:28:26.427Z,4704.00
2018-09-17T10:29:26.433Z,4724.00
2018-09-17T10:30:26.437Z,4724.00
2018-09-17T10:31:26.436Z,4712.00
2018-09-17T10:32:26.441Z,4704.00
2018-09-17T10:33:26.475Z,4672.00
2018-09-17T10:34:26.447Z,4552.00
2018-09-17T10:35:26.496Z,4372.00
2018-09-17T10:36:26.449Z,4156.00
2018-09-17T10:37:26.450Z,3944.00
2018-09-17T10:38:26.465Z,3916.00
2018-09-17T10:39:26.479Z,3828.00
2018-09-17T10:40:26.521Z,3772.00
2018-09-17T10:41:26.464Z,3700.00
2018-09-17T10:42:26.469Z,3636.00
2018-09-17T10:43:26.480Z,3532.00
2018-09-17T10:44:26.477Z,3404.00
2018-09-17T10:45:26.480Z,3352.00
2018-09-17T10:46:26.587Z,3316.00
2018-09-17T10:47:26.661Z,3280.00
2018-09-17T10:48:26.836Z,3256.00
2018-09-17T10:49:26.598Z,3208.00
2018-09-17T10:50:26.535Z,3100.00
2018-09-17T10:51:26.576Z,3020.00
2018-09-17T10:52:26.628Z,2948.00
2018-09-17T10:53:26.641Z,2892.00
2018-09-17T10:54:26.507Z,2820.00
2018-09-17T10:55:27.434Z,2756.00
2018-09-17T10:56:26.511Z,2740.00
2018-09-17T10:57:26.667Z,2716.00
2018-09-17T10:58:26.518Z,2692.00
2018-09-17T10:59:26.521Z,2636.00
2018-09-17T11:00:27.339Z,2728.00
2018-09-17T11:01:26.526Z,2712.00
2018-09-17T11:02:26.525Z,2512.00
2018-09-17T11:03:26.860Z,2528.00
2018-09-17T11:04:26.539Z,2580.00
2018-09-17T11:05:26.538Z,2596.00
2018-09-17T11:06:26.543Z,2488.00
2018-09-17T11:07:26.598Z,2504.00
2018-09-17T11:08:26.548Z,2492.00
2018-09-17T11:09:26.550Z,2440.00
2018-09-17T11:10:26.554Z,2440.00
2018-09-17T11:11:26.565Z,2420.00
2018-09-17T11:12:26.571Z,2372.00
2018-09-17T11:13:26.571Z,2356.00
2018-09-17T11:14:26.567Z,2328.00
2018-09-17T11:15:26.566Z,2308.00
2018-09-17T11:16:26.574Z,2292.00
2018-09-17T11:17:26.600Z,2276.00
2018-09-17T11:18:26.579Z,2268.00
2018-09-17T11:19:26.584Z,2264.00
2018-09-17T11:20:26.580Z,2248.00
2018-09-17T11:21:26.589Z,2248.00
2018-09-17T11:22:26.591Z,2252.00
2018-09-17T11:23:26.592Z,2248.00
2018-09-17T11:24:26.597Z,2252.00
2018-09-17T11:25:26.601Z,2252.00
2018-09-17T11:26:26.608Z,2260.00
2018-09-17T11:27:26.607Z,2264.00
2018-09-17T11:28:26.608Z,2276.00
2018-09-17T11:29:26.620Z,2276.00
2018-09-17T11:30:26.617Z,2300.00
2018-09-17T11:31:26.679Z,2316.00
2018-09-17T11:32:26.624Z,2336.00
2018-09-17T11:33:26.626Z,2348.00
2018-09-17T11:34:26.634Z,2340.00
2018-09-17T11:35:26.638Z,2360.00
2018-09-17T11:36:26.636Z,2368.00
2018-09-17T11:37:26.641Z,2360.00
2018-09-17T11:38:27.355Z,2356.00
2018-09-17T11:39:26.648Z,2324.00
2018-09-17T11:40:26.649Z,2352.00
2018-09-17T11:41:26.652Z,2364.00
2018-09-17T11:42:26.656Z,2372.00
2018-09-17T11:43:26.657Z,2380.00
2018-09-17T11:44:26.661Z,2344.00
2018-09-17T11:45:26.668Z,2384.00
2018-09-17T11:46:26.684Z,2448.00
2018-09-17T11:47:26.670Z,2488.00
2018-09-17T11:48:26.696Z,2520.00
2018-09-17T11:49:26.677Z,2584.00
2018-09-17T11:50:26.690Z,2652.00
2018-09-17T11:51:26.684Z,2704.00
2018-09-17T11:52:26.689Z,2756.00
2018-09-17T11:53:26.693Z,2788.00
2018-09-17T11:54:26.702Z,2752.00
2018-09-17T11:55:26.700Z,2740.00
2018-09-17T11:56:26.706Z,2908.00
2018-09-17T11:57:26.707Z,2904.00
2018-09-17T11:58:26.713Z,2884.00
2018-09-17T11:59:26.712Z,2808.00
2018-09-17T12:00:26.716Z,2884.00
2018-09-17T12:01:26.722Z,2888.00
2018-09-17T12:02:26.725Z,2880.00
2018-09-17T12:03:26.729Z,2904.00
2018-09-17T12:04:26.737Z,2932.00
2018-09-17T12:05:26.734Z,2888.00
2018-09-17T12:06:26.739Z,2844.00
2018-09-17T12:07:26.742Z,2900.00
2018-09-17T12:08:26.746Z,3052.00
2018-09-17T12:09:26.755Z,3160.00
2018-09-17T12:10:26.754Z,3248.00
2018-09-17T12:11:26.756Z,3280.00
2018-09-17T12:12:26.760Z,3300.00
2018-09-17T12:13:26.761Z,3312.00
2018-09-17T12:14:26.785Z,3308.00
2018-09-17T12:15:26.773Z,3296.00
2018-09-17T12:16:26.778Z,3276.00
2018-09-17T12:17:26.780Z,3288.00
2018-09-17T12:18:26.783Z,3308.00
2018-09-17T12:19:26.806Z,3308.00
2018-09-17T12:20:26.791Z,3332.00
2018-09-17T12:21:26.793Z,3388.00
2018-09-17T12:22:26.798Z,3432.00
2018-09-17T12:23:26.803Z,3480.00
2018-09-17T12:24:26.810Z,3504.00
2018-09-17T12:25:26.808Z,3520.00
2018-09-17T12:26:26.822Z,3536.00
2018-09-17T12:27:26.816Z,3520.00
2018-09-17T12:28:26.821Z,3460.00
2018-09-17T12:29:26.824Z,3564.00
2018-09-17T12:30:26.833Z,3592.00
2018-09-17T12:31:26.830Z,3584.00